Time;durP1;ratioP1;P1;durP2;ratioP2;P2;SDS_P1;SDS_P2;PMS_P1;PMS_P2;Temp;Humidity;BMP_temperature;BMP_pressure;BME280_temperature;BME280_humidity;BME280_pressure;Samples;Min_cycle;Max_cycle;Signal;HPM_P1;HPM_P2
2022/03/03 00:00:32;;;;;;;;;;;;;;;11.99;58.26;100819.38;5014760;28;1024;-32
2022/03/03 00:02:59;;;;;;;;;;;;;;;11.98;58.00;100817.66;5014347;28;1986;-32
2022/03/03 00:05:25;;;;;;;;;;;;;;;11.94;58.32;100817.84;5014362;28;1092;-32
2022/03/03 00:07:52;;;;;;;;;;;;;;;11.94;58.04;100817.84;5014400;28;1073;-32
2022/03/03 00:10:21;;;;;;;;;;;;;;;11.97;58.04;100823.91;5014306;28;1112;-32
2022/03/03 00:12:47;;;;;;;;;;;;;;;11.96;58.81;100822.19;5014610;28;1086;-32
2022/03/03 00:15:13;;;;;;;;;;;;;;;11.98;58.81;100813.22;5014528;28;967;-32
2022/03/03 00:17:40;;;;;;;;;;;;;;;11.96;58.07;100803.63;5014167;28;1151;-32
2022/03/03 00:20:07;;;;;;;;;;;;;;;11.94;58.11;100804.59;5014071;28;1162;-32
2022/03/03 00:22:33;;;;;;;;;;;;;;;11.93;58.69;100804.69;5014131;28;1151;-32
2022/03/03 00:24:59;;;;;;;;;;;;;;;11.96;58.79;100788.63;5013976;28;1968;-32
2022/03/03 00:27:27;;;;;;;;;;;;;;;11.91;58.19;100794.16;5014011;28;1073;-32
2022/03/03 00:29:54;;;;;;;;;;;;;;;11.96;57.94;100798.34;5013856;28;1065;-32
2022/03/03 00:32:20;;;;;;;;;;;;;;;11.93;58.12;100792.28;5014204;28;1185;-32
2022/03/03 00:34:47;;;;;;;;;;;;;;;11.89;58.55;100793.41;5013963;28;1092;-32
2022/03/03 00:37:13;;;;;;;;;;;;;;;11.90;58.14;100787.16;5014204;28;1081;-32
2022/03/03 00:39:40;;;;;;;;;;;;;;;11.90;58.62;100784.50;5014131;28;1028;-32
2022/03/03 00:42:06;;;;;;;;;;;;;;;11.96;58.08;100790.38;5013815;28;1072;-32
2022/03/03 00:44:34;;;;;;;;;;;;;;;11.93;58.89;100773.72;5013965;28;1973;-32
2022/03/03 00:47:00;;;;;;;;;;;;;;;11.94;57.95;100786.03;5014074;28;1197;-32
2022/03/03 00:49:27;;;;;;;;;;;;;;;11.97;58.73;100779.69;5013753;28;1116;-32
2022/03/03 00:51:53;;;;;;;;;;;;;;;11.92;58.60;100779.97;5013892;28;995;-32
2022/03/03 00:54:20;;;;;;;;;;;;;;;11.94;59.34;100771.94;5013731;28;1148;-32
2022/03/03 00:56:46;;;;;;;;;;;;;;;11.91;57.97;100759.72;5013873;28;1056;-32
2022/03/03 00:59:13;;;;;;;;;;;;;;;11.93;58.74;100765.78;5013956;28;993;-32
2022/03/03 01:01:41;;;;;;;;;;;;;;;11.93;58.26;100762.28;5013818;28;1519;-32
2022/03/03 01:04:08;;;;;;;;;;;;;;;11.89;57.89;100761.59;5013456;28;1910;-32
2022/03/03 01:06:34;;;;;;;;;;;;;;;11.88;58.41;100764.31;5013885;28;1059;-32
2022/03/03 01:09:00;;;;;;;;;;;;;;;11.89;58.14;100753.66;5013462;28;1096;-32
2022/03/03 01:11:27;;;;;;;;;;;;;;;11.88;59.18;100759.88;5013532;28;1135;-32
2022/03/03 01:13:53;;;;;;;;;;;;;;;11.88;58.16;100754.56;5013788;28;1051;-33
2022/03/03 01:16:20;;;;;;;;;;;;;;;11.85;58.51;100743.28;5014288;28;1959;-32
2022/03/03 01:18:48;;;;;;;;;;;;;;;11.90;59.04;100742.13;5014231;28;2079;-32
2022/03/03 01:21:14;;;;;;;;;;;;;;;11.90;58.12;100741.28;5013394;28;1076;-32
2022/03/03 01:23:41;;;;;;;;;;;;;;;11.86;58.28;100735.25;5013343;28;1902;-32
2022/03/03 01:26:08;;;;;;;;;;;;;;;11.86;59.00;100740.56;5013440;28;1084;-32
2022/03/03 01:28:34;;;;;;;;;;;;;;;11.88;58.42;100741.31;5013397;28;1278;-32
2022/03/03 01:31:00;;;;;;;;;;;;;;;11.91;58.08;100737.66;5013378;28;1169;-32
2022/03/03 01:33:27;;;;;;;;;;;;;;;11.91;57.96;100732.38;5013594;28;1083;-32
2022/03/03 01:35:55;;;;;;;;;;;;;;;11.92;57.68;100728.78;5013611;28;1007;-32
2022/03/03 01:38:21;;;;;;;;;;;;;;;11.90;57.88;100720.91;5013285;28;1104;-32
2022/03/03 01:40:48;;;;;;;;;;;;;;;11.90;57.80;100726.22;5014064;28;1072;-32
2022/03/03 01:43:14;;;;;;;;;;;;;;;11.91;58.58;100738.50;5016901;28;1902;-32
2022/03/03 01:45:41;;;;;;;;;;;;;;;11.92;58.21;100723.50;5017047;28;1080;-33
2022/03/03 01:48:07;;;;;;;;;;;;;;;11.91;58.46;100735.00;5016938;28;1136;-32
2022/03/03 01:50:33;;;;;;;;;;;;;;;11.91;58.33;100725.25;5017567;28;1090;-33
2022/03/03 01:53:01;;;;;;;;;;;;;;;11.90;57.90;100718.28;5017233;28;1008;-32
2022/03/03 01:55:28;;;;;;;;;;;;;;;11.88;57.94;100711.34;5016766;28;1140;-32
2022/03/03 01:57:55;;;;;;;;;;;;;;;11.90;58.08;100710.31;5016807;28;936;-32
2022/03/03 02:00:22;;;;;;;;;;;;;;;11.91;59.25;100719.97;5016712;28;1136;-32
2022/03/03 02:02:48;;;;;;;;;;;;;;;11.88;58.31;100721.94;5016741;28;1501;-32
2022/03/03 02:05:15;;;;;;;;;;;;;;;11.85;58.40;100711.50;5016561;28;1906;-32
2022/03/03 02:07:41;;;;;;;;;;;;;;;11.85;58.38;100715.00;5016816;28;1036;-32
2022/03/03 02:10:10;;;;;;;;;;;;;;;11.83;58.86;100718.69;5016800;28;1078;-32
2022/03/03 02:12:37;;;;;;;;;;;;;;;11.86;58.32;100719.38;5016452;28;1104;-32
2022/03/03 02:15:04;;;;;;;;;;;;;;;11.85;58.12;100707.03;5016736;28;1151;-32
2022/03/03 02:17:30;;;;;;;;;;;;;;;11.90;58.25;100715.63;5016435;28;1104;-32
2022/03/03 02:19:57;;;;;;;;;;;;;;;11.86;57.92;100703.47;5016248;28;1163;-33
2022/03/03 02:22:25;;;;;;;;;;;;;;;11.86;57.87;100714.06;5016636;28;1025;-32
2022/03/03 02:24:51;;;;;;;;;;;;;;;11.88;58.09;100706.88;5016200;28;1915;-32
2022/03/03 02:27:18;;;;;;;;;;;;;;;11.85;58.17;100707.03;5016220;28;1104;-32
2022/03/03 02:29:44;;;;;;;;;;;;;;;11.89;58.62;100710.41;5016440;28;1083;-32
2022/03/03 02:32:11;;;;;;;;;;;;;;;11.87;59.14;100699.84;5016541;28;1125;-32
2022/03/03 02:34:37;;;;;;;;;;;;;;;11.86;58.42;100705.28;5016067;28;1010;-33
2022/03/03 02:37:04;;;;;;;;;;;;;;;11.88;58.98;100698.94;5016357;28;971;-32
2022/03/03 02:39:32;;;;;;;;;;;;;;;11.89;58.17;100700.66;5016372;28;1082;-32
2022/03/03 02:41:58;;;;;;;;;;;;;;;11.86;59.53;100698.16;5016296;28;1099;-32
2022/03/03 02:44:25;;;;;;;;;;;;;;;11.86;58.00;100698.16;5016103;28;1906;-32
2022/03/03 02:46:51;;;;;;;;;;;;;;;11.88;58.49;100695.44;5016140;28;1055;-32
2022/03/03 02:49:17;;;;;;;;;;;;;;;11.86;59.51;100692.88;5016102;28;1085;-32
2022/03/03 02:51:44;;;;;;;;;;;;;;;11.85;58.66;100693.78;5015736;28;1073;-32
2022/03/03 02:54:10;;;;;;;;;;;;;;;11.84;59.37;100692.09;5015986;28;1088;-32
2022/03/03 02:59:19;;;;;;;;;;;;;;;11.82;58.04;100683.41;5014828;28;918;-32
2022/03/03 03:01:52;;;;;;;;;;;;;;;11.82;58.96;100685.19;5118535;23;3593;-32
2022/03/03 03:04:18;;;;;;;;;;;;;;;11.82;57.97;100686.03;5015800;28;1977;-32
2022/03/03 03:06:44;;;;;;;;;;;;;;;11.78;58.48;100689.81;5015783;28;1090;-31
2022/03/03 03:09:11;;;;;;;;;;;;;;;11.80;58.41;100687.94;5015433;28;1083;-32
2022/03/03 03:11:39;;;;;;;;;;;;;;;11.80;59.22;100672.03;5015480;28;1147;-32
2022/03/03 03:14:05;;;;;;;;;;;;;;;11.80;58.06;100672.03;5015826;28;1075;-32
2022/03/03 03:16:31;;;;;;;;;;;;;;;11.81;59.54;100678.19;5015638;28;1090;-31
2022/03/03 03:18:58;;;;;;;;;;;;;;;11.80;58.73;100673.81;5015309;28;1119;-32
2022/03/03 03:21:24;;;;;;;;;;;;;;;11.86;58.19;100676.97;5015436;28;2055;-32
2022/03/03 03:23:51;;;;;;;;;;;;;;;11.82;58.43;100680.75;5015159;28;1906;-32
2022/03/03 03:26:17;;;;;;;;;;;;;;;11.85;58.65;100679.72;5015181;28;1166;-32
2022/03/03 03:28:45;;;;;;;;;;;;;;;11.85;58.99;100672.59;5015334;28;1190;-32
2022/03/03 03:31:11;;;;;;;;;;;;;;;11.84;57.89;100670.91;5015558;28;1000;-32
2022/03/03 03:33:38;;;;;;;;;;;;;;;11.86;58.91;100679.63;5016009;28;1003;-32
2022/03/03 03:36:05;;;;;;;;;;;;;;;11.88;58.13;100677.72;5015478;28;1159;-32
2022/03/03 03:38:32;;;;;;;;;;;;;;;11.87;57.87;100670.72;5015225;28;1073;-32
2022/03/03 03:40:58;;;;;;;;;;;;;;;11.77;58.12;100658.13;5015173;28;1089;-31
2022/03/03 03:43:25;;;;;;;;;;;;;;;11.79;58.22;100669.47;5015133;28;1071;-32
2022/03/03 03:45:52;;;;;;;;;;;;;;;11.79;58.25;100670.31;5015018;28;1977;-32
2022/03/03 03:48:19;;;;;;;;;;;;;;;11.81;58.93;100655.19;5015007;28;995;-31
2022/03/03 03:50:45;;;;;;;;;;;;;;;11.84;58.89;100662.13;5014707;28;1088;-31
2022/03/03 03:53:12;;;;;;;;;;;;;;;11.83;59.46;100655.94;5015028;28;1074;-32
2022/03/03 03:55:38;;;;;;;;;;;;;;;11.85;58.74;100659.34;5014856;28;1011;-32
2022/03/03 03:58:05;;;;;;;;;;;;;;;11.86;58.48;100663.72;5014871;28;1027;-32
2022/03/03 04:00:31;;;;;;;;;;;;;;;11.86;58.92;100662.88;5014937;28;1085;-32
2022/03/03 04:02:59;;;;;;;;;;;;;;;11.85;57.90;100654.06;5014540;28;1506;-32
2022/03/03 04:05:26;;;;;;;;;;;;;;;11.85;58.24;100654.06;5014646;28;1914;-32
2022/03/03 04:07:52;;;;;;;;;;;;;;;11.83;57.73;100645.34;5014379;28;1162;-32
2022/03/03 04:10:19;;;;;;;;;;;;;;;11.86;58.38;100650.47;5014656;28;1075;-32
2022/03/03 04:12:45;;;;;;;;;;;;;;;11.85;58.04;100651.41;5014678;28;998;-32
2022/03/03 04:15:11;;;;;;;;;;;;;;;11.86;58.03;100654.94;5014644;28;1073;-31
2022/03/03 04:17:38;;;;;;;;;;;;;;;11.82;57.99;100659.56;5014483;28;1059;-32
2022/03/03 04:20:07;;;;;;;;;;;;;;;11.85;59.21;100653.22;5014528;28;1107;-31
2022/03/03 04:22:34;;;;;;;;;;;;;;;11.82;59.23;100651.59;5014168;28;1088;-32
2022/03/03 04:25:00;;;;;;;;;;;;;;;11.84;58.01;100652.38;5014333;28;1902;-31
2022/03/03 04:27:27;;;;;;;;;;;;;;;11.83;58.10;100655.09;5014070;28;959;-32
2022/03/03 04:29:53;;;;;;;;;;;;;;;11.77;59.12;100651.00;5014211;28;1081;-31
2022/03/03 04:32:20;;;;;;;;;;;;;;;11.79;58.07;100648.28;5014288;28;1074;-32
2022/03/03 04:34:46;;;;;;;;;;;;;;;11.75;59.21;100637.00;5014322;28;1051;-32
2022/03/03 04:37:14;;;;;;;;;;;;;;;11.76;58.98;100644.03;5014270;28;995;-32
2022/03/03 04:39:40;;;;;;;;;;;;;;;11.81;59.50;100636.63;5013904;28;1131;-32
2022/03/03 04:42:07;;;;;;;;;;;;;;;11.80;59.04;100645.53;5013814;28;1096;-32
2022/03/03 04:44:33;;;;;;;;;;;;;;;11.84;59.17;100635.63;5014079;28;1906;-32
2022/03/03 04:47:00;;;;;;;;;;;;;;;11.82;58.46;100633.06;5014110;28;1019;-32
2022/03/03 04:49:26;;;;;;;;;;;;;;;11.83;58.78;100645.34;5014102;28;1078;-32
2022/03/03 04:51:54;;;;;;;;;;;;;;;11.86;58.50;100645.19;5013966;28;1079;-32
2022/03/03 04:54:21;;;;;;;;;;;;;;;11.80;59.24;100640.25;5013994;28;1048;-32
2022/03/03 04:56:48;;;;;;;;;;;;;;;11.81;58.37;100627.84;5014065;28;1074;-32
2022/03/03 04:59:14;;;;;;;;;;;;;;;11.82;58.04;100638.34;5013629;28;1166;-32
2022/03/03 05:01:41;;;;;;;;;;;;;;;11.82;59.28;100632.22;5013451;28;1385;-32
2022/03/03 05:04:07;;;;;;;;;;;;;;;11.81;57.93;100643.75;5013910;28;1077;-32
2022/03/03 05:06:34;;;;;;;;;;;;;;;11.79;58.14;100641.19;5013780;28;1902;-32
2022/03/03 05:09:00;;;;;;;;;;;;;;;11.73;58.79;100636.25;5013603;28;1080;-31
2022/03/03 05:11:28;;;;;;;;;;;;;;;11.75;59.24;100642.31;5013853;28;1078;-32
2022/03/03 05:13:55;;;;;;;;;;;;;;;11.72;58.98;100645.16;5013861;28;1093;-31
2022/03/03 05:16:21;;;;;;;;;;;;;;;11.72;59.45;100637.22;5016947;28;1345;-31
2022/03/03 05:18:48;;;;;;;;;;;;;;;11.75;58.99;100642.31;5017787;28;1078;-32
2022/03/03 05:21:14;;;;;;;;;;;;;;;11.75;57.90;100639.66;5017811;28;1078;-31
2022/03/03 05:23:40;;;;;;;;;;;;;;;11.72;58.74;100638.06;5017745;28;1067;-32
2022/03/03 05:26:07;;;;;;;;;;;;;;;11.73;59.00;100636.25;5017313;28;1902;-32
2022/03/03 05:28:35;;;;;;;;;;;;;;;11.73;58.89;100633.59;5017639;28;999;-31
2022/03/03 05:31:02;;;;;;;;;;;;;;;11.75;58.85;100637.84;5017817;28;1067;-31
2022/03/03 05:33:29;;;;;;;;;;;;;;;11.78;59.52;100634.19;5017537;28;1074;-32
2022/03/03 05:35:58;;;;;;;;;;;;;;;11.78;59.20;100633.31;5017255;28;1076;-32
2022/03/03 05:38:28;;;;;;;;;;;;;;;11.81;58.14;100634.00;5017196;28;1108;-32
2022/03/03 05:40:54;;;;;;;;;;;;;;;11.82;58.69;100633.06;5017071;28;1127;-32
2022/03/03 05:43:21;;;;;;;;;;;;;;;11.79;58.00;100630.56;5017361;28;1054;-32
2022/03/03 05:45:49;;;;;;;;;;;;;;;11.81;58.75;100635.78;5017304;28;1902;-32
2022/03/03 05:48:17;;;;;;;;;;;;;;;11.82;58.91;100635.72;5017336;28;1059;-32
2022/03/03 05:50:43;;;;;;;;;;;;;;;11.84;59.21;100644.41;5016951;28;1178;-32
2022/03/03 05:53:09;;;;;;;;;;;;;;;11.82;58.04;100640.16;5017133;28;1070;-32
2022/03/03 05:55:39;;;;;;;;;;;;;;;11.79;59.31;100633.22;5017190;28;1071;-32
2022/03/03 05:58:09;;;;;;;;;;;;;;;11.80;58.05;100642.91;5016850;28;1127;-32
2022/03/03 06:00:36;;;;;;;;;;;;;;;11.82;59.07;100634.88;5017129;28;1070;-32
2022/03/03 06:03:04;;;;;;;;;;;;;;;11.83;58.40;100641.84;5016343;28;1499;-32
2022/03/03 06:05:31;;;;;;;;;;;;;;;11.75;57.98;100637.84;5016647;28;1914;-32
2022/03/03 06:08:02;;;;;;;;;;;;;;;11.77;58.28;100634.28;5016645;28;1131;-31
2022/03/03 06:10:32;;;;;;;;;;;;;;;11.78;59.04;100641.25;5016872;28;1071;-32
2022/03/03 06:13:03;;;;;;;;;;;;;;;11.77;58.77;100651.00;5016866;28;1074;-32
2022/03/03 06:15:30;;;;;;;;;;;;;;;11.86;58.55;100661.06;5016800;28;1096;-32
2022/03/03 06:17:57;;;;;;;;;;;;;;;11.86;57.84;100655.78;5016719;28;1123;-32
2022/03/03 06:20:27;;;;;;;;;;;;;;;11.88;57.99;100659.19;5016973;28;1094;-31
2022/03/03 06:22:54;;;;;;;;;;;;;;;11.86;58.00;100661.06;5016327;28;1080;-32
2022/03/03 06:25:20;;;;;;;;;;;;;;;11.88;58.64;100653.03;5016238;28;1906;-32
2022/03/03 06:27:47;;;;;;;;;;;;;;;11.90;58.73;100665.28;5015953;28;1010;-32
2022/03/03 06:30:13;;;;;;;;;;;;;;;11.89;57.65;100660.06;5016335;28;1089;-31
2022/03/03 06:32:40;;;;;;;;;;;;;;;11.92;57.46;100660.75;5016472;28;1071;-31
2022/03/03 06:35:06;;;;;;;;;;;;;;;11.94;58.21;100666.78;5016555;28;1066;-32
2022/03/03 06:37:34;;;;;;;;;;;;;;;11.96;57.93;100650.81;5016132;28;1140;-32
2022/03/03 06:40:01;;;;;;;;;;;;;;;11.94;58.81;100653.53;5016587;28;1081;-32
2022/03/03 06:42:27;;;;;;;;;;;;;;;11.93;59.08;100649.19;5016482;28;1003;-32
2022/03/03 06:44:54;;;;;;;;;;;;;;;11.93;57.70;100641.22;5015895;28;1906;-32
2022/03/03 06:47:21;;;;;;;;;;;;;;;11.96;58.23;100671.13;5015930;28;1167;-31
2022/03/03 06:49:48;;;;;;;;;;;;;;;11.91;57.74;100661.66;5015887;28;1103;-32
2022/03/03 06:52:16;;;;;;;;;;;;;;;11.97;57.78;100649.00;5015758;28;1071;-32
2022/03/03 06:54:45;;;;;;;;;;;;;;;11.96;58.38;100665.84;5015994;28;1015;-32
2022/03/03 06:57:12;;;;;;;;;;;;;;;11.97;57.54;100662.25;5016019;28;991;-32
2022/03/03 06:59:39;;;;;;;;;;;;;;;11.99;57.52;100671.81;5015621;28;1092;-32
2022/03/03 07:02:06;;;;;;;;;;;;;;;12.01;58.14;100669.91;5015174;28;1377;-31
2022/03/03 07:04:34;;;;;;;;;;;;;;;12.00;57.68;100673.53;5015585;28;1130;-32
2022/03/03 07:07:00;;;;;;;;;;;;;;;12.00;57.54;100676.19;5015704;28;1977;-32
2022/03/03 07:09:27;;;;;;;;;;;;;;;12.02;57.79;100681.41;5015793;28;1069;-32
2022/03/03 07:11:55;;;;;;;;;;;;;;;12.05;57.48;100690.00;5015784;28;1086;-32
2022/03/03 07:14:21;;;;;;;;;;;;;;;12.00;57.57;100675.34;5015718;28;1004;-32
2022/03/03 07:17:01;;;;;;;;;;;;;;;12.00;58.71;100681.47;5015614;28;1093;-32
2022/03/03 07:19:45;;;;;;;;;;;;;;;12.06;57.94;100686.41;5015581;28;1004;-32
2022/03/03 07:22:15;;;;;;;;;;;;;;;12.08;57.83;100686.31;5015555;28;1082;-31
2022/03/03 07:24:43;;;;;;;;;;;;;;;12.07;58.78;100681.94;5015192;28;1143;-31
2022/03/03 07:27:15;;;;;;;;;;;;;;;12.05;58.19;100691.78;5015067;28;1902;-32
2022/03/03 07:29:42;;;;;;;;;;;;;;;12.05;57.55;100689.16;5015050;28;1096;-32
2022/03/03 07:32:09;;;;;;;;;;;;;;;12.04;58.42;100680.34;5015365;28;1000;-32
2022/03/03 07:34:37;;;;;;;;;;;;;;;12.05;58.42;100681.19;5015305;28;1081;-32
2022/03/03 07:37:05;;;;;;;;;;;;;;;12.00;57.82;100673.53;5015293;28;1035;-32
2022/03/03 07:39:37;;;;;;;;;;;;;;;12.02;57.72;100669.00;5013674;28;1108;-32
2022/03/03 07:42:04;;;;;;;;;;;;;;;12.09;58.26;100688.00;5015142;28;1089;-32
2022/03/03 07:44:32;;;;;;;;;;;;;;;12.08;58.15;100665.13;5014836;28;1112;-32
2022/03/03 07:46:59;;;;;;;;;;;;;;;12.07;57.57;100669.53;5015026;28;2044;-32
2022/03/03 07:49:26;;;;;;;;;;;;;;;12.13;57.53;100695.69;5014705;28;1064;-32
2022/03/03 07:51:53;;;;;;;;;;;;;;;12.05;57.99;100676.75;5014713;28;1155;-32
2022/03/03 07:54:19;;;;;;;;;;;;;;;12.06;58.48;100677.63;5014765;28;1075;-32
2022/03/03 07:56:48;;;;;;;;;;;;;;;12.04;58.79;100677.69;5014937;28;1063;-32
2022/03/03 07:59:17;;;;;;;;;;;;;;;12.04;58.31;100685.66;5014891;28;1051;-32
2022/03/03 08:01:46;;;;;;;;;;;;;;;12.03;57.91;100665.38;5014531;28;1478;-32
2022/03/03 08:04:15;;;;;;;;;;;;;;;12.04;58.11;100671.56;5014355;28;1266;-32
2022/03/03 08:06:41;;;;;;;;;;;;;;;12.05;58.07;100660.00;5014607;28;1902;-32
2022/03/03 08:09:09;;;;;;;;;;;;;;;12.07;58.97;100660.75;5014731;28;1293;-32
2022/03/03 08:11:38;;;;;;;;;;;;;;;12.12;57.98;100661.34;5014361;28;1091;-32
2022/03/03 08:14:05;;;;;;;;;;;;;;;12.13;58.26;100663.88;5014650;28;1001;-32
2022/03/03 08:16:35;;;;;;;;;;;;;;;12.14;58.07;100670.03;5014554;28;991;-32
2022/03/03 08:19:04;;;;;;;;;;;;;;;12.13;57.94;100658.56;5014435;28;1089;-32
2022/03/03 08:21:31;;;;;;;;;;;;;;;12.11;59.04;100663.13;5014201;28;1139;-32
2022/03/03 08:24:00;;;;;;;;;;;;;;;12.14;58.55;100659.44;5014513;28;1075;-32
2022/03/03 08:26:28;;;;;;;;;;;;;;;12.11;58.61;100656.97;5014359;28;1906;-32
2022/03/03 08:28:54;;;;;;;;;;;;;;;12.12;58.29;100667.47;5014298;28;996;-32
2022/03/03 08:31:25;;;;;;;;;;;;;;;12.14;58.73;100662.09;5013960;28;1115;-32
2022/03/03 08:33:54;;;;;;;;;;;;;;;12.16;58.57;100662.00;5013968;28;1096;-32
2022/03/03 08:36:26;;;;;;;;;;;;;;;12.19;57.64;100660.00;5013972;28;1163;-32
2022/03/03 08:38:53;;;;;;;;;;;;;;;12.16;57.87;100646.94;5014273;28;1077;-32
2022/03/03 08:41:21;;;;;;;;;;;;;;;12.16;58.25;100652.25;5013880;28;1130;-32
2022/03/03 08:43:49;;;;;;;;;;;;;;;12.20;57.90;100658.22;5014710;28;1948;-31
2022/03/03 08:46:17;;;;;;;;;;;;;;;12.23;57.97;100658.00;5014201;28;1906;-32
2022/03/03 08:48:44;;;;;;;;;;;;;;;12.21;58.47;100659.91;5013793;28;1161;-32
2022/03/03 08:51:24;;;;;;;;;;;;;;;12.22;57.84;100651.88;5013857;28;1085;-32
2022/03/03 08:53:52;;;;;;;;;;;;;;;12.24;57.90;100654.44;5013616;28;1079;-32
2022/03/03 08:56:19;;;;;;;;;;;;;;;12.28;57.78;100667.41;5014006;28;1050;-32
2022/03/03 08:58:45;;;;;;;;;;;;;;;12.25;58.14;100651.66;5014015;28;1019;-32
2022/03/03 09:01:12;;;;;;;;;;;;;;;12.24;57.96;100654.44;5013901;28;1434;-32
2022/03/03 09:03:40;;;;;;;;;;;;;;;12.22;58.56;100649.22;5013303;28;1153;-32
2022/03/03 09:06:06;;;;;;;;;;;;;;;12.27;57.85;100655.06;5013829;28;1926;-32
2022/03/03 09:08:33;;;;;;;;;;;;;;;12.31;58.62;100653.09;5013603;28;1009;-32
2022/03/03 09:11:01;;;;;;;;;;;;;;;12.31;58.57;100639.84;5013574;28;1096;-32
2022/03/03 09:13:27;;;;;;;;;;;;;;;12.31;58.15;100646.00;5013823;28;1086;-32
2022/03/03 09:15:54;;;;;;;;;;;;;;;12.33;58.64;100653.84;5013831;28;1079;-32
2022/03/03 09:18:20;;;;;;;;;;;;;;;12.29;58.26;100652.34;5013755;28;1023;-32
2022/03/03 09:20:47;;;;;;;;;;;;;;;12.29;58.80;100647.03;5013815;28;999;-32
2022/03/03 09:23:13;;;;;;;;;;;;;;;12.31;58.46;100651.31;5013762;28;1081;-32
2022/03/03 09:25:41;;;;;;;;;;;;;;;12.34;57.84;100655.56;5013706;28;1902;-32
2022/03/03 09:28:09;;;;;;;;;;;;;;;12.32;58.47;100652.16;5013768;28;1008;-32
2022/03/03 09:30:35;;;;;;;;;;;;;;;12.32;58.52;100655.66;5014155;28;1001;-32
2022/03/03 09:33:02;;;;;;;;;;;;;;;12.32;58.17;100660.97;5013398;28;1182;-32
2022/03/03 09:35:28;;;;;;;;;;;;;;;12.40;58.16;100659.66;5013360;28;1154;-31
2022/03/03 09:37:55;;;;;;;;;;;;;;;12.33;58.55;100660.03;5013364;28;1290;-31
2022/03/03 09:40:21;;;;;;;;;;;;;;;12.33;57.91;100662.69;5013639;28;1974;-32
2022/03/03 09:42:59;;;;;;;;;;;;;;;12.34;58.48;100651.09;5013559;28;1078;-32
2022/03/03 09:45:27;;;;;;;;;;;;;;;12.33;58.06;100673.28;5013590;28;1004;-31
2022/03/03 09:47:55;;;;;;;;;;;;;;;12.31;58.34;100661.91;5013431;28;1910;-31
2022/03/03 09:50:22;;;;;;;;;;;;;;;12.33;58.48;100660.03;5013543;28;1077;-32
2022/03/03 09:52:48;;;;;;;;;;;;;;;12.34;58.12;100664.38;5013552;28;1106;-32
2022/03/03 09:55:14;;;;;;;;;;;;;;;12.33;58.73;100651.19;5013457;28;1093;-31
2022/03/03 09:57:41;;;;;;;;;;;;;;;12.33;58.39;100648.53;5013144;28;1120;-31
2022/03/03 10:00:09;;;;;;;;;;;;;;;12.39;58.43;100658.75;5013448;28;1087;-32
2022/03/03 10:02:50;;;;;;;;;;;;;;;12.36;58.73;100652.81;5014762;28;1479;-32
2022/03/03 10:05:27;;;;;;;;;;;;;;;12.38;58.26;100645.63;5016222;28;1953;-32
2022/03/03 10:07:59;;;;;;;;;;;;;;;12.42;58.65;100652.44;5016618;28;1910;-32
2022/03/03 10:10:26;;;;;;;;;;;;;;;12.40;58.40;100659.66;5016628;28;1165;-32
2022/03/03 10:12:53;;;;;;;;;;;;;;;12.35;57.97;100649.31;5016867;28;1062;-32
2022/03/03 10:15:20;;;;;;;;;;;;;;;12.29;58.62;100637.28;5016538;28;1127;-32
2022/03/03 10:17:47;;;;;;;;;;;;;;;12.32;58.55;100646.84;5016732;28;1083;-32
2022/03/03 10:20:13;;;;;;;;;;;;;;;12.27;59.05;100630.38;5016729;28;1015;-32
2022/03/03 10:22:45;;;;;;;;;;;;;;;12.28;58.18;100627.63;5015794;28;1644;-32
2022/03/03 10:25:14;;;;;;;;;;;;;;;12.32;58.57;100626.50;5016542;28;1082;-32
2022/03/03 10:27:41;;;;;;;;;;;;;;;12.39;58.23;100626.94;5016106;28;1898;-32
2022/03/03 10:30:08;;;;;;;;;;;;;;;12.43;58.46;100636.41;5015183;28;1679;-32
2022/03/03 10:32:36;;;;;;;;;;;;;;;12.39;57.97;100626.09;5016117;28;1083;-32
2022/03/03 10:35:13;;;;;;;;;;;;;;;12.42;58.47;100621.47;5016339;28;1055;-32
2022/03/03 10:37:39;;;;;;;;;;;;;;;12.43;57.88;100611.69;5016103;28;1155;-32
2022/03/03 10:40:11;;;;;;;;;;;;;;;12.45;58.11;100610.66;5015668;28;1562;-32
2022/03/03 10:42:38;;;;;;;;;;;;;;;12.44;58.47;100611.59;5009833;28;1596;-32
2022/03/03 10:45:06;;;;;;;;;;;;;;;12.46;58.37;100627.44;5015792;28;1096;-32
2022/03/03 10:47:33;;;;;;;;;;;;;;;12.44;58.37;100616.06;5016130;28;1967;-31
2022/03/03 10:50:00;;;;;;;;;;;;;;;12.46;58.40;100628.28;5015884;28;1158;-32
2022/03/03 10:52:28;;;;;;;;;;;;;;;12.42;58.22;100610.00;5016021;28;1079;-32
2022/03/03 10:54:56;;;;;;;;;;;;;;;12.52;58.07;100622.59;5015984;28;1078;-32
2022/03/03 10:57:31;;;;;;;;;;;;;;;12.48;57.75;100609.63;5016025;28;1085;-32
2022/03/03 10:59:58;;;;;;;;;;;;;;;12.48;58.71;100610.47;5015979;28;1129;-32
2022/03/03 11:02:25;;;;;;;;;;;;;;;12.53;58.33;100618.13;5015442;28;1470;-32
2022/03/03 11:04:52;;;;;;;;;;;;;;;12.56;58.26;100617.94;5015576;28;1144;-32
2022/03/03 11:07:20;;;;;;;;;;;;;;;12.58;58.47;100620.50;5015712;28;1907;-31
2022/03/03 11:09:46;;;;;;;;;;;;;;;12.57;58.38;100619.63;5015819;28;1012;-32
2022/03/03 11:12:13;;;;;;;;;;;;;;;12.60;57.98;100624.75;5015485;28;1076;-32
2022/03/03 11:14:41;;;;;;;;;;;;;;;12.54;58.38;100609.22;5015623;28;1016;-32
2022/03/03 11:17:09;;;;;;;;;;;;;;;12.54;58.19;100619.84;5015679;28;1089;-32
2022/03/03 11:19:36;;;;;;;;;;;;;;;12.51;58.45;100617.38;5015284;28;1080;-32
2022/03/03 11:22:03;;;;;;;;;;;;;;;12.46;57.89;100606.22;5015254;28;935;-32
2022/03/03 11:24:30;;;;;;;;;;;;;;;12.48;58.45;100609.63;5015231;28;1088;-32
2022/03/03 11:27:00;;;;;;;;;;;;;;;12.47;58.51;100603.47;5015417;28;1906;-32
2022/03/03 11:29:27;;;;;;;;;;;;;;;12.47;58.99;100599.94;5015057;28;1080;-32
2022/03/03 11:32:05;;;;;;;;;;;;;;;12.50;58.24;100594.47;5015074;28;1080;-32
2022/03/03 11:34:43;;;;;;;;;;;;;;;12.53;58.25;100602.22;5015015;28;1096;-32
2022/03/03 11:37:16;;;;;;;;;;;;;;;12.48;58.43;100596.38;5015300;28;1085;-32
2022/03/03 11:39:45;;;;;;;;;;;;;;;12.52;58.36;100600.53;5015129;28;1063;-32
2022/03/03 11:42:31;;;;;;;;;;;;;;;12.47;58.29;100608.78;5015173;28;1078;-32
2022/03/03 11:44:59;;;;;;;;;;;;;;;12.48;58.58;100599.00;5014846;28;1064;-31
2022/03/03 11:47:28;;;;;;;;;;;;;;;12.48;58.77;100599.84;5014725;28;1911;-32
2022/03/03 11:50:09;;;;;;;;;;;;;;;12.49;58.61;100596.28;5014768;28;1155;-32
2022/03/03 11:52:37;;;;;;;;;;;;;;;12.53;58.91;100592.47;5014716;28;1080;-32
2022/03/03 11:55:22;;;;;;;;;;;;;;;12.53;58.27;100596.91;5014886;28;1064;-32
2022/03/03 11:57:49;;;;;;;;;;;;;;;12.54;58.53;100593.31;5014921;28;996;-32
2022/03/03 12:00:18;;;;;;;;;;;;;;;12.54;58.59;100593.31;5014870;28;1035;-32
2022/03/03 12:02:55;;;;;;;;;;;;;;;12.57;57.91;100606.38;5014334;28;1387;-32
2022/03/03 12:05:31;;;;;;;;;;;;;;;12.53;58.42;100597.78;5014471;28;1080;-32
2022/03/03 12:07:58;;;;;;;;;;;;;;;12.58;58.45;100610.75;5014384;28;1981;-32
2022/03/03 12:10:25;;;;;;;;;;;;;;;12.56;58.38;100602.03;5014663;28;1025;-32
2022/03/03 12:12:51;;;;;;;;;;;;;;;12.54;58.45;100601.28;5014642;28;1037;-32
2022/03/03 12:15:18;;;;;;;;;;;;;;;12.55;58.37;100595.00;5014314;28;1080;-32
2022/03/03 12:17:46;;;;;;;;;;;;;;;12.57;58.55;100598.41;5014488;28;1089;-32
2022/03/03 12:20:34;;;;;;;;;;;;;;;12.60;58.33;100586.78;5014555;28;1053;-32
2022/03/03 12:23:04;;;;;;;;;;;;;;;12.58;58.02;100578.91;5014533;28;1015;-32
2022/03/03 12:25:46;;;;;;;;;;;;;;;12.60;58.24;100600.03;5013958;28;1077;-32
2022/03/03 12:28:15;;;;;;;;;;;;;;;12.61;58.34;100584.00;4997601;28;1910;-32
2022/03/03 12:30:45;;;;;;;;;;;;;;;12.64;58.00;100583.81;5014184;28;1043;-32
2022/03/03 12:33:20;;;;;;;;;;;;;;;12.61;58.13;100573.38;5014348;28;1076;-31
2022/03/03 12:35:48;;;;;;;;;;;;;;;12.64;58.18;100572.38;5014308;28;1082;-32
2022/03/03 12:38:15;;;;;;;;;;;;;;;12.60;58.22;100582.31;5014276;28;1085;-32
2022/03/03 12:40:41;;;;;;;;;;;;;;;12.59;58.24;100585.06;5014211;28;1075;-32
2022/03/03 12:43:11;;;;;;;;;;;;;;;12.55;58.43;100576.44;5014139;28;1161;-32
2022/03/03 12:45:38;;;;;;;;;;;;;;;12.53;58.21;100586.28;5014387;28;1014;-32
2022/03/03 12:48:06;;;;;;;;;;;;;;;12.53;58.52;100581.00;5013698;28;1988;-32
2022/03/03 12:50:33;;;;;;;;;;;;;;;12.57;58.58;100579.00;5014104;28;1004;-32
2022/03/03 12:53:03;;;;;;;;;;;;;;;12.54;58.44;100566.78;5013679;28;1072;-32